x

Port Orford - 15 Nm West Of Port Orford, Or (46015) Wave Buoy

9:50am - Sun 1st Feb 2015 All times are PST. -8 hours from GMT.

  • Sig Wave height 4.9ft
  • Swell Direction
  • Peak Period 14s
  • Average Period 8s
  • Wind
    13mph, 16mph gusts
  • Sea Temp 55°f
  • Air Temp 55°f
  • Sea Pressure 1020.8mb
  • Port Orford - 15 Nm West Of Port Orford, Or
  • Port Orford - 15 Nm West Of Port Orford, Or

More Historic Weather Station data

Upgrade to MSW Pro to gain access to the past 30 days of data for over 8000 Wavebouys and Weather Stations around the globe.

Join Pro

Comparision Forecast

View Surf forecast
   
Sun 02/01 9:50am 5ft 14s 8s 13 16 mph 1020.8mb 55f 55f
8:50am 5ft 14s 8s 9 13 mph 1020.4mb 55f 54f
7:50am 5ft 14s 8s 7 9 mph 1019.6mb 55f 55f
6:50am 5ft 13s 8s 7 9 mph 1019.6mb 55f 55f
5:50am 4.5ft 12s 8s 7 11 mph 1019.9mb 55f 55f
4:50am 4ft 12s 8s 9 13 mph 1018.1mb 55f 55f
3:50am 4.5ft 12s 8s 11 13 mph 1018.9mb 55f 55f
2:50am 4.5ft 14s 7s 11 16 mph 1019.2mb 55f 55f
1:50am 4.5ft 12s 7s 16 20 mph 1017.9mb 55f 55f
12:50am 4.5ft 13s 8s 4
mph
1019.5mb 55f 55f
Sat 01/31 11:50pm 4.5ft 13s 8s 7 9 mph 1020mb 55f 55f
10:50pm 5ft 13s 8s 2 4 mph 1018.6mb 55f 55f
9:50pm 4.5ft 11s 7s 9 11 mph 1018.3mb 55f 55f
8:50pm 5ft 12s 8s 4 7 mph 1017.7mb 55f 55f
7:50pm 5.5ft 14s 8s 7
mph
1017.8mb 55f 55f
6:50pm 5.5ft 14s 8s 7
mph
1018.1mb 55f 55f
5:50pm 5.5ft 14s 7s 7 9 mph 1017.9mb 55f 55f
4:50pm 5.5ft 13s 7s 9
mph
1017.6mb 55f 55f
3:50pm 6ft 13s 7s 7
mph
1017.4mb 55f 56f
2:50pm 5ft 14s 6s 13 16 mph 1016.6mb 55f 56f
1:50pm 6ft 14s 7s 16 18 mph 1016.7mb 55f 56f
12:50pm 6.5ft 13s 7s 16 18 mph 1016.7mb 55f 55f
11:50am 7ft 13s 7s 13 16 mph 1018mb 55f 54f
10:50am 6.5ft 11s 6s 18 20 mph 1018.5mb 55f 54f
9:50am 6ft 12s 6s 18 20 mph 1018.6mb 55f 54f
8:50am 6ft 14s 6s 18 22 mph 1018.7mb 55f 53f
7:50am 7ft 13s 6s 22 25 mph 1018.3mb 55f 53f
6:50am 7ft 14s 6s 25 29 mph 1018.6mb 55f 53f
5:50am 7.5ft 14s 7s 20 25 mph 1018.7mb 55f 54f
4:50am 7ft 14s 6s 22 27 mph 1018.5mb 55f 53f
3:50am 6.5ft 14s 6s 20 25 mph 1018.5mb 55f 54f
2:50am 6.5ft 15s 7s 20 22 mph 1019.3mb 55f 54f
1:50am 6.5ft 14s 6s 20 25 mph 1019.4mb 55f 54f
12:50am 7ft 15s 6s 18 20 mph 1020mb 55f 54f
Fri 01/30 11:50pm 7ft 14s 6s 22 27 mph 1019.9mb 55f 55f
10:50pm 7ft 15s 6s 25 29 mph 1020.7mb 55f 54f
9:50pm 7ft 14s 6s 22 25 mph 1020.7mb 55f 55f
8:50pm 7ft 14s 6s 22 27 mph 1020.2mb 55f 54f
7:50pm 7ft 15s 6s 25 29 mph 1020.6mb 55f 54f
6:50pm 8ft 15s 6s 27 31 mph 1020.8mb 55f 54f
5:50pm 8ft 14s 6s 25 29 mph 1021.5mb 55f 54f
4:50pm 7.5ft 14s 6s 27 31 mph 1021.4mb 55f 54f
3:50pm 7.5ft 15s 6s 29 34 mph 1021mb 55f 54f
2:50pm 7ft 14s 6s 25 29 mph 1020.4mb 55f 54f
1:50pm 7ft 14s 6s 27 31 mph 1020mb 55f 53f
12:50pm 7ft 16s 6s 25 31 mph 1020.8mb 55f 53f
11:50am 7ft 16s 7s 25 27 mph 1021.3mb 55f 52f
10:50am 7.5ft 10s 6s 25 29 mph 1022.2mb 55f 51f
9:50am 7ft 15s 6s 22 27 mph 1022.4mb 55f 51f
8:50am 7ft 15s 6s 22 27 mph 1022.4mb 55f 51f
7:50am 8ft 15s 6s 22 25 mph 1022.7mb 55f 52f
6:50am 7.5ft 15s 6s 25 31 mph 1022.6mb 55f 53f
5:50am 7.5ft 15s 7s 25 29 mph 1022.7mb 55f 54f
4:50am 7ft 15s 7s 25 29 mph 1022.6mb 55f 54f
3:50am 7ft 15s 6s 25 27 mph 1022.8mb 55f 54f
2:50am 8ft 16s 7s 22 27 mph 1023mb 55f 54f
1:50am 7.5ft 16s 7s 22 27 mph 1022.6mb 55f 54f
12:50am 7ft 11s 6s 20 25 mph 1022.9mb 55f 54f
Thu 01/29 11:50pm 7ft 16s 6s 22 25 mph 1022.7mb 55f 54f
10:50pm 7.5ft 16s 6s 22 27 mph 1022.6mb 55f 54f
9:50pm 7ft 11s 6s 22 25 mph 1022.7mb 55f 54f
8:50pm 8ft 16s 7s 22 27 mph 1022.7mb 55f 54f
7:50pm 7.5ft 17s 7s 20 25 mph 1022.9mb 55f 54f
6:50pm 7ft 17s 6s 22 27 mph 1022.7mb 55f 54f
5:50pm 6.5ft 11s 6s 22 25 mph 1022.8mb 55f 54f
4:50pm 6ft 17s 6s 22 25 mph 1022.6mb 55f 54f
3:50pm 7ft 16s 6s 22 27 mph 1022.6mb 55f 54f
2:50pm 7.5ft 17s 7s 22 27 mph 1022.8mb 55f 54f
1:50pm 6.5ft 16s  -  22 27 mph 1022.9mb 55f 53f
12:50pm 6ft 16s 6s 22 27 mph 1023.5mb 55f 54f
11:50am 6ft 17s 6s 22 27 mph 1024.1mb 55f 54f
10:50am 6.5ft 17s 7s 22 25 mph 1024.3mb 54f 53f
9:50am 6.5ft 17s 8s 22 25 mph 1024mb 54f 54f
8:50am 7ft 17s 9s 20 22 mph 1023.8mb 55f 54f
7:50am 6ft 17s 8s 18 22 mph 1023.7mb 55f 54f
6:50am 6ft 17s 8s 16 18 mph 1023.8mb 55f 54f
5:50am 5ft 19s 8s 16 18 mph 1024mb 54f 54f
4:50am 6ft 19s 8s 16 18 mph 1024.3mb 54f 54f
3:50am 5.5ft 19s 8s 13 16 mph 1024.8mb 54f 55f
2:50am 5.5ft 19s 8s 16 18 mph 1024.8mb 54f 54f
1:50am 6.5ft 19s 10s 11 13 mph 1025mb 55f 55f
12:50am 5ft 10s 8s 11 13 mph 1025.1mb 55f 55f
Wed 01/28 11:50pm 6ft 19s 10s 9 11 mph 1025.4mb 55f 55f
10:50pm 5.5ft 19s 9s 9 11 mph 1025.3mb 55f 55f
9:50pm 5ft 19s 9s 9 11 mph 1025.4mb 55f 55f
8:50pm 5.5ft 19s 9s 7 9 mph 1025.3mb 55f 55f
7:50pm 5.5ft 19s 9s 4 7 mph 1025.2mb 55f 55f